CheckWX is a tool to help pilots better visualize weather data.  It is not intended as a substitute for an official pre-flight weather briefing.

02:58:18 UTC

KTOC METAR
Toccoa Rg Letourneau Field Airport
Toccoa, Georgia, USA
Current

23 mins ago

KTOC 230235Z AUTO 00000KT 10SM SCT055 BKN070 BKN085 24/21 A2996 RMK AO2 T02350212
Observed
Jul-23 @ 02:35 UTC
Visibility
10 SM
Flight Rules
VFR
Cloud Levels
  • Scattered at 5,500' AGL
  • Broken at 7,000' AGL
  • Broken at 8,500' AGL
Temperature
24°C / 75°F
Dewpoint
21°C / 70°F
Humidity
83%
Altimeter
29.96" Hg
Pressure
1014.52 hPa
Previous

43 mins ago

KTOC 230215Z AUTO 00000KT 10SM SCT055 BKN070 BKN120 24/21 A2996 RMK AO2 T02360209
Observed
Jul-23 @ 02:15 UTC
Visibility
10 SM
Flight Rules
VFR
Cloud Levels
  • Scattered at 5,500' AGL
  • Broken at 7,000' AGL
  • Broken at 12,000' AGL
Temperature
24°C / 75°F
Dewpoint
21°C / 70°F
Humidity
83%
Altimeter
29.96" Hg
Pressure
1014.52 hPa
Previous

1 hour ago

KTOC 230155Z AUTO 00000KT 10SM SCT055 SCT070 SCT120 24/21 A2995 RMK AO2 T02360207
Observed
Jul-23 @ 01:55 UTC
Visibility
10 SM
Flight Rules
VFR
Cloud Levels
  • Scattered at 5,500' AGL
  • Scattered at 7,000' AGL
  • Scattered at 12,000' AGL
Temperature
24°C / 75°F
Dewpoint
21°C / 70°F
Humidity
83%
Altimeter
29.95" Hg
Pressure
1014.22 hPa